Time;durP1;ratioP1;P1;durP2;ratioP2;P2;SDS_P1;SDS_P2;PMS_P1;PMS_P2;Temp;Humidity;BMP_temperature;BMP_pressure;BME280_temperature;BME280_humidity;BME280_pressure;Samples;Min_cycle;Max_cycle;Signal;HPM_P1;HPM_P2
2021/08/01 00:02:26;;;;;;;19.80;9.98;;;24.60;56.40;;;;;;6243871;28;20113;-71
2021/08/01 00:05:27;;;;;;;20.15;9.90;;;24.60;56.40;;;;;;6244681;28;20042;-70
2021/08/01 00:08:27;;;;;;;19.90;9.63;;;24.60;56.40;;;;;;6245304;28;20310;-71
2021/08/01 00:11:30;;;;;;;23.67;10.25;;;24.60;56.40;;;;;;6244796;28;20524;-71
2021/08/01 00:14:30;;;;;;;19.33;9.43;;;24.60;56.40;;;;;;6239165;28;20033;-71
2021/08/01 00:17:31;;;;;;;17.83;9.07;;;24.60;56.40;;;;;;6244425;28;20496;-71
2021/08/01 00:20:31;;;;;;;20.58;9.73;;;24.60;56.40;;;;;;6245215;28;20055;-70
2021/08/01 00:23:32;;;;;;;17.75;8.70;;;24.60;56.40;;;;;;6245655;28;20115;-71
2021/08/01 00:26:32;;;;;;;21.33;10.13;;;24.60;56.40;;;;;;6244653;28;20032;-70
2021/08/01 00:29:33;;;;;;;19.80;9.27;;;24.60;56.40;;;;;;6244495;28;20484;-71
2021/08/01 00:32:34;;;;;;;18.63;9.25;;;24.60;56.40;;;;;;6244975;28;20017;-71
2021/08/01 00:35:34;;;;;;;18.63;9.00;;;24.60;56.40;;;;;;6244064;28;20384;-71
2021/08/01 00:38:35;;;;;;;17.45;8.20;;;24.60;56.40;;;;;;6243174;28;20230;-71
2021/08/01 00:41:36;;;;;;;16.35;7.97;;;24.60;56.40;;;;;;6244013;28;20026;-71
2021/08/01 00:44:36;;;;;;;14.70;7.95;;;24.60;56.40;;;;;;6244313;28;20029;-71
2021/08/01 00:47:37;;;;;;;16.23;7.93;;;24.60;56.40;;;;;;6244035;28;20022;-71
2021/08/01 00:50:38;;;;;;;16.65;7.72;;;24.60;56.50;;;;;;6244264;28;20099;-71
2021/08/01 00:53:38;;;;;;;14.90;7.93;;;24.60;56.50;;;;;;6243701;28;20499;-70
2021/08/01 00:56:39;;;;;;;16.27;7.50;;;24.60;56.50;;;;;;6244025;28;20049;-70
2021/08/01 00:59:40;;;;;;;15.60;7.90;;;24.60;56.50;;;;;;6241748;28;20388;-71
2021/08/01 01:02:43;;;;;;;12.55;6.80;;;24.60;56.50;;;;;;6243774;28;20072;-71
2021/08/01 01:05:55;;;;;;;13.27;7.10;;;24.60;56.50;;;;;;6243137;28;20021;-71
2021/08/01 01:09:14;;;;;;;13.40;6.80;;;24.60;56.50;;;;;;6242828;28;20083;-71
2021/08/01 01:12:19;;;;;;;14.30;7.13;;;24.60;56.50;;;;;;6233501;28;20377;-70
2021/08/01 01:15:23;;;;;;;15.15;7.03;;;24.60;56.50;;;;;;6223952;28;20029;-70
2021/08/01 01:18:28;;;;;;;14.63;6.65;;;24.60;56.50;;;;;;6243567;28;20038;-71
2021/08/01 01:21:49;;;;;;;15.35;6.85;;;24.60;56.50;;;;;;6243334;28;20022;-70
2021/08/01 01:24:52;;;;;;;13.05;6.40;;;24.60;56.50;;;;;;6242627;28;20037;-70
2021/08/01 01:28:07;;;;;;;13.95;7.00;;;24.60;56.50;;;;;;6242907;28;20033;-71
2021/08/01 01:31:35;;;;;;;11.82;6.05;;;24.60;56.50;;;;;;6241411;28;20033;-70
2021/08/01 01:34:39;;;;;;;11.23;6.07;;;24.60;56.50;;;;;;6242126;28;20037;-71
2021/08/01 01:37:41;;;;;;;12.38;6.05;;;24.60;56.50;;;;;;6241886;28;20026;-70
2021/08/01 01:40:42;;;;;;;10.88;5.65;;;24.60;56.60;;;;;;6242034;28;20071;-70
2021/08/01 01:43:44;;;;;;;12.88;6.07;;;24.60;56.60;;;;;;6241517;28;20030;-71
2021/08/01 01:46:46;;;;;;;12.02;6.25;;;24.60;56.50;;;;;;6241900;28;20037;-70
2021/08/01 01:49:49;;;;;;;10.10;5.40;;;24.60;56.60;;;;;;6240441;28;20476;-70
2021/08/01 01:52:51;;;;;;;10.30;4.82;;;24.60;56.60;;;;;;6241534;28;20025;-71
2021/08/01 01:55:52;;;;;;;8.57;4.85;;;24.60;57.30;;;;;;6241389;28;20088;-70
2021/08/01 01:58:53;;;;;;;10.90;5.78;;;24.60;56.60;;;;;;6242044;28;20068;-70
2021/08/01 02:01:54;;;;;;;9.93;5.22;;;24.60;56.60;;;;;;6240990;28;20034;-70
2021/08/01 02:04:54;;;;;;;8.30;4.80;;;24.60;56.60;;;;;;6241664;28;20051;-71
2021/08/01 02:07:55;;;;;;;9.20;5.03;;;24.60;56.60;;;;;;6241072;28;20037;-70
2021/08/01 02:10:58;;;;;;;8.43;4.95;;;24.60;56.60;;;;;;6241836;28;20036;-70
2021/08/01 02:14:06;;;;;;;9.85;4.50;;;24.60;56.60;;;;;;6231008;28;20105;-70
2021/08/01 02:17:11;;;;;;;8.65;4.57;;;24.60;56.60;;;;;;6228051;28;20037;-71
2021/08/01 02:20:14;;;;;;;7.53;4.32;;;24.60;57.30;;;;;;6241333;28;20504;-70
2021/08/01 02:23:26;;;;;;;8.23;4.53;;;24.60;56.60;;;;;;6240739;28;20041;-71
2021/08/01 02:26:27;;;;;;;7.88;4.25;;;24.60;56.70;;;;;;6241043;28;20519;-71
2021/08/01 02:29:30;;;;;;;10.40;4.78;;;24.60;56.60;;;;;;6240941;28;20036;-70
2021/08/01 02:32:32;;;;;;;8.68;4.18;;;24.60;56.60;;;;;;6240787;28;20036;-71
2021/08/01 02:35:33;;;;;;;6.68;3.90;;;24.60;56.60;;;;;;6240450;28;20018;-71
2021/08/01 02:38:35;;;;;;;7.47;4.03;;;24.60;56.60;;;;;;6241196;28;20060;-70
2021/08/01 02:41:38;;;;;;;6.88;3.63;;;24.60;56.60;;;;;;6240427;28;20024;-71
2021/08/01 02:44:40;;;;;;;5.78;3.08;;;24.60;56.60;;;;;;6240916;28;20045;-70
2021/08/01 02:47:41;;;;;;;7.72;3.88;;;24.60;56.70;;;;;;6240312;28;20033;-70
2021/08/01 02:50:48;;;;;;;6.03;3.33;;;24.60;56.60;;;;;;6241107;28;20059;-71
2021/08/01 02:53:53;;;;;;;7.60;3.83;;;24.60;56.60;;;;;;6240577;28;20039;-70
2021/08/01 02:57:03;;;;;;;9.15;4.10;;;24.60;56.60;;;;;;6240075;28;20049;-71
2021/08/01 03:00:04;;;;;;;6.60;3.60;;;24.60;56.60;;;;;;6238232;28;20033;-70
2021/08/01 03:03:05;;;;;;;6.38;3.38;;;24.60;56.60;;;;;;6239654;28;20025;-71
2021/08/01 03:06:07;;;;;;;5.45;3.30;;;24.60;56.60;;;;;;6239965;28;20238;-71
2021/08/01 03:09:09;;;;;;;6.95;3.53;;;24.60;56.60;;;;;;6240389;28;20021;-71
2021/08/01 03:12:11;;;;;;;4.65;2.88;;;24.60;56.60;;;;;;6240245;28;20148;-70
2021/08/01 03:15:12;;;;;;;5.22;3.17;;;24.60;56.70;;;;;;6220461;28;20458;-71
2021/08/01 03:18:13;;;;;;;4.28;2.72;;;24.60;56.70;;;;;;6226495;28;20080;-70
2021/08/01 03:21:13;;;;;;;6.70;3.42;;;24.60;56.70;;;;;;6240248;28;20030;-70
2021/08/01 03:24:14;;;;;;;4.88;2.65;;;24.60;56.70;;;;;;6239879;28;20060;-73
2021/08/01 03:27:14;;;;;;;4.30;2.83;;;24.60;56.70;;;;;;6240165;28;20075;-70
2021/08/01 03:30:15;;;;;;;5.20;2.88;;;24.60;56.70;;;;;;6240895;28;20040;-71
2021/08/01 03:33:15;;;;;;;4.55;2.83;;;24.60;56.70;;;;;;6244596;28;20029;-71
2021/08/01 03:36:16;;;;;;;5.00;3.00;;;24.60;56.70;;;;;;6245437;28;20056;-71
2021/08/01 03:39:16;;;;;;;4.95;3.05;;;24.60;56.70;;;;;;6245183;28;20030;-71
2021/08/01 03:42:17;;;;;;;5.28;2.95;;;24.60;56.70;;;;;;6244837;28;20025;-71
2021/08/01 03:45:17;;;;;;;5.10;2.90;;;24.60;56.70;;;;;;6244482;28;20360;-71
2021/08/01 03:48:18;;;;;;;4.05;2.47;;;24.60;56.70;;;;;;6244311;28;20108;-71
2021/08/01 03:51:18;;;;;;;4.55;2.67;;;24.60;56.70;;;;;;6244923;28;20041;-71
2021/08/01 03:54:19;;;;;;;4.88;2.45;;;24.60;56.70;;;;;;6244134;28;20380;-71
2021/08/01 03:57:19;;;;;;;3.53;2.13;;;24.60;56.70;;;;;;6244161;28;20065;-71
2021/08/01 04:00:46;;;;;;;3.70;2.20;;;24.60;56.70;;;;;;6243988;28;20029;-71
2021/08/01 04:03:46;;;;;;;4.82;2.50;;;24.60;56.70;;;;;;6244132;28;20488;-71
2021/08/01 04:06:47;;;;;;;4.40;2.65;;;24.60;56.70;;;;;;6244114;28;20030;-71
2021/08/01 04:09:48;;;;;;;4.05;2.45;;;24.60;56.70;;;;;;6244499;28;20057;-71
2021/08/01 04:12:48;;;;;;;4.35;2.33;;;24.60;56.80;;;;;;6244455;28;20388;-71
2021/08/01 04:15:49;;;;;;;4.57;2.53;;;24.60;56.70;;;;;;6244450;28;20033;-71
2021/08/01 04:18:49;;;;;;;3.40;2.15;;;24.60;56.70;;;;;;6243842;28;20013;-71
2021/08/01 04:21:50;;;;;;;3.70;2.00;;;24.60;56.80;;;;;;6243563;28;20025;-71
2021/08/01 04:24:50;;;;;;;4.10;2.30;;;24.60;56.70;;;;;;6243557;28;20033;-71
2021/08/01 04:27:51;;;;;;;3.38;2.00;;;24.60;56.70;;;;;;6243845;28;20032;-71
2021/08/01 04:30:51;;;;;;;2.78;1.98;;;24.60;56.80;;;;;;6243003;28;20025;-71
2021/08/01 04:33:52;;;;;;;3.38;1.98;;;24.60;56.70;;;;;;6243768;28;20025;-71
2021/08/01 04:36:53;;;;;;;3.63;1.83;;;24.60;56.70;;;;;;6243266;28;20025;-71
2021/08/01 04:39:53;;;;;;;3.60;2.10;;;24.60;56.70;;;;;;6243042;28;20025;-71
2021/08/01 04:42:54;;;;;;;3.03;1.75;;;24.60;56.80;;;;;;6241914;28;20034;-71
2021/08/01 04:45:54;;;;;;;2.58;1.83;;;24.60;56.80;;;;;;6243164;28;20029;-71
2021/08/01 04:48:55;;;;;;;3.22;1.60;;;24.60;56.80;;;;;;6242671;28;20060;-71
2021/08/01 04:51:55;;;;;;;3.55;2.05;;;24.60;56.80;;;;;;6241862;28;20029;-71
2021/08/01 04:54:56;;;;;;;3.03;1.85;;;24.60;56.80;;;;;;6243176;28;20029;-71
2021/08/01 04:57:56;;;;;;;3.03;1.48;;;24.60;56.80;;;;;;6243294;28;20488;-71
2021/08/01 05:00:58;;;;;;;2.95;1.67;;;24.60;57.40;;;;;;6241106;28;20029;-71
2021/08/01 05:03:58;;;;;;;3.53;2.15;;;24.60;56.80;;;;;;6241851;28;20072;-71
2021/08/01 05:06:59;;;;;;;2.30;1.58;;;24.60;56.80;;;;;;6242930;28;20017;-71
2021/08/01 05:10:00;;;;;;;2.45;1.40;;;24.60;56.80;;;;;;6241336;28;20064;-71
2021/08/01 05:13:07;;;;;;;1.83;1.33;;;24.60;56.80;;;;;;6240957;28;20191;-71
2021/08/01 05:16:07;;;;;;;4.78;1.67;;;24.60;56.80;;;;;;6235422;28;20022;-71
2021/08/01 05:19:08;;;;;;;2.35;1.30;;;24.60;56.80;;;;;;6242255;28;20523;-71
2021/08/01 05:22:09;;;;;;;3.38;1.70;;;24.60;56.80;;;;;;6242350;28;20053;-71
2021/08/01 05:25:10;;;;;;;2.03;1.30;;;24.60;56.80;;;;;;6242720;28;20091;-71
2021/08/01 05:28:11;;;;;;;2.40;1.60;;;24.60;56.80;;;;;;6242077;28;20481;-71
2021/08/01 05:31:11;;;;;;;1.95;1.40;;;24.60;56.80;;;;;;6241950;28;20060;-71
2021/08/01 05:34:12;;;;;;;2.20;1.30;;;24.60;56.80;;;;;;6242274;28;20037;-71
2021/08/01 05:37:12;;;;;;;2.45;1.60;;;24.60;56.80;;;;;;6241486;28;20029;-71
2021/08/01 05:40:13;;;;;;;2.25;1.48;;;24.60;56.80;;;;;;6242279;28;20022;-71
2021/08/01 05:43:13;;;;;;;1.80;1.30;;;24.60;56.80;;;;;;6242388;28;20599;-71
2021/08/01 05:46:14;;;;;;;2.42;1.42;;;24.60;56.80;;;;;;6242174;28;20052;-71
2021/08/01 05:49:14;;;;;;;2.15;1.40;;;24.60;56.80;;;;;;6242146;28;20025;-71
2021/08/01 05:52:15;;;;;;;1.80;1.33;;;24.60;57.50;;;;;;6241723;28;20617;-71
2021/08/01 05:55:16;;;;;;;1.70;1.10;;;24.60;56.80;;;;;;6241168;28;20310;-71
2021/08/01 05:58:16;;;;;;;2.10;1.42;;;24.60;56.80;;;;;;6240588;28;20034;-71
2021/08/01 06:01:17;;;;;;;2.63;1.35;;;24.60;56.80;;;;;;6241315;28;20511;-71
2021/08/01 06:04:17;;;;;;;1.70;1.25;;;24.60;56.80;;;;;;6241237;28;20065;-71
2021/08/01 06:07:18;;;;;;;2.40;1.35;;;24.60;56.80;;;;;;6238462;28;20297;-71
2021/08/01 06:10:18;;;;;;;1.95;1.33;;;24.60;56.80;;;;;;6241492;28;20036;-71
2021/08/01 06:13:19;;;;;;;1.55;1.15;;;24.60;56.80;;;;;;6237198;28;20029;-71
2021/08/01 06:16:19;;;;;;;2.58;1.52;;;24.60;56.80;;;;;;6224356;28;20358;-71
2021/08/01 06:19:20;;;;;;;2.28;1.20;;;24.60;56.80;;;;;;6241294;28;20033;-71
2021/08/01 06:22:24;;;;;;;1.50;1.10;;;24.60;56.80;;;;;;6241261;28;20105;-71
2021/08/01 06:25:25;;;;;;;2.25;1.20;;;24.60;56.80;;;;;;6241167;28;20125;-71
2021/08/01 06:28:25;;;;;;;1.63;1.00;;;24.60;56.90;;;;;;6240746;28;20577;-71
2021/08/01 06:31:26;;;;;;;1.77;1.20;;;24.60;56.80;;;;;;6241126;28;20021;-71
2021/08/01 06:34:26;;;;;;;1.92;1.15;;;24.60;56.80;;;;;;6241140;28;20088;-71
2021/08/01 06:37:27;;;;;;;1.83;1.02;;;24.60;56.80;;;;;;6234753;28;20461;-71
2021/08/01 06:40:27;;;;;;;1.35;1.00;;;24.60;56.80;;;;;;6240576;28;20034;-71
2021/08/01 06:43:29;;;;;;;1.55;1.10;;;24.60;56.80;;;;;;6240587;28;20037;-71
2021/08/01 06:46:29;;;;;;;1.25;1.00;;;24.60;56.80;;;;;;6240562;28;20108;-71
2021/08/01 06:49:30;;;;;;;1.52;1.00;;;24.60;56.80;;;;;;6207379;28;20412;-71
2021/08/01 06:52:30;;;;;;;1.40;0.90;;;24.60;56.90;;;;;;6226591;28;20511;-71
2021/08/01 06:55:31;;;;;;;1.65;1.20;;;24.60;56.90;;;;;;6236906;28;20053;-71
2021/08/01 06:58:32;;;;;;;1.63;1.17;;;24.60;56.80;;;;;;6235894;28;20030;-72
2021/08/01 07:01:36;;;;;;;2.33;1.20;;;24.60;56.80;;;;;;6238944;28;20029;-71
2021/08/01 07:04:36;;;;;;;3.47;1.27;;;24.60;56.30;;;;;;6238005;28;20048;-71
2021/08/01 07:07:37;;;;;;;3.72;1.25;;;24.60;55.40;;;;;;6241551;28;20030;-71
2021/08/01 07:10:38;;;;;;;4.50;1.30;;;24.60;54.50;;;;;;6241572;28;20029;-71
2021/08/01 07:13:39;;;;;;;5.40;1.25;;;24.60;55.00;;;;;;6237734;28;20022;-71
2021/08/01 07:16:43;;;;;;;7.45;1.33;;;24.60;54.70;;;;;;6243748;28;20105;-71
2021/08/01 07:19:48;;;;;;;7.53;1.25;;;24.60;54.60;;;;;;6241580;28;20396;-71
2021/08/01 07:22:48;;;;;;;3.55;1.10;;;24.60;54.50;;;;;;6242746;28;20226;-71
2021/08/01 07:25:50;;;;;;;2.17;1.10;;;24.60;54.30;;;;;;6242748;28;20033;-71
2021/08/01 07:28:50;;;;;;;3.58;1.40;;;24.60;53.70;;;;;;6242756;28;20025;-71
2021/08/01 07:31:51;;;;;;;1.73;1.00;;;24.60;54.30;;;;;;6241496;28;20554;-71
2021/08/01 07:34:52;;;;;;;3.20;1.15;;;24.60;54.90;;;;;;6242982;28;20348;-71
2021/08/01 07:37:52;;;;;;;2.80;1.05;;;24.60;55.30;;;;;;6242330;28;20060;-71
2021/08/01 07:40:53;;;;;;;3.42;1.08;;;24.60;55.50;;;;;;6242478;28;20842;-71
2021/08/01 07:43:53;;;;;;;1.20;0.80;;;24.60;55.80;;;;;;6236631;28;20048;-71
2021/08/01 07:46:54;;;;;;;2.80;0.80;;;24.60;56.00;;;;;;6242731;28;20029;-71
2021/08/01 07:49:54;;;;;;;1.33;0.85;;;24.60;56.10;;;;;;6241690;28;20140;-71
2021/08/01 07:52:55;;;;;;;1.23;0.90;;;24.60;56.20;;;;;;6241856;28;20033;-71
2021/08/01 07:55:56;;;;;;;2.35;1.25;;;24.60;56.30;;;;;;6236444;28;20115;-71
2021/08/01 07:58:56;;;;;;;1.42;0.98;;;24.60;56.30;;;;;;6244405;28;20060;-71
2021/08/01 08:01:57;;;;;;;1.02;0.70;;;24.50;56.30;;;;;;6244093;28;20063;-71
2021/08/01 08:04:57;;;;;;;1.80;0.95;;;24.60;56.40;;;;;;6243190;28;20033;-71
2021/08/01 08:07:58;;;;;;;2.08;0.90;;;24.60;56.30;;;;;;6243835;28;20578;-71
2021/08/01 08:10:58;;;;;;;1.70;0.90;;;24.50;56.30;;;;;;6244673;28;20030;-71
2021/08/01 08:13:59;;;;;;;5.30;0.90;;;24.60;56.40;;;;;;6243147;28;20029;-72
2021/08/01 08:16:59;;;;;;;2.13;1.00;;;24.60;56.50;;;;;;6243386;28;20025;-71
2021/08/01 08:20:02;;;;;;;3.65;0.90;;;24.50;56.40;;;;;;6244016;28;20404;-71
2021/08/01 08:23:02;;;;;;;1.33;0.90;;;24.60;56.60;;;;;;6243485;28;20022;-71
2021/08/01 08:26:03;;;;;;;2.42;0.93;;;24.60;56.60;;;;;;6243605;28;20049;-71
2021/08/01 08:29:03;;;;;;;1.17;0.90;;;24.50;56.50;;;;;;6243822;28;20057;-71
2021/08/01 08:32:04;;;;;;;1.45;0.80;;;24.50;56.60;;;;;;6243521;28;20423;-71
2021/08/01 08:35:05;;;;;;;1.13;0.70;;;24.50;56.50;;;;;;6243795;28;20025;-71
2021/08/01 08:38:06;;;;;;;1.17;0.70;;;24.60;56.60;;;;;;6243418;28;20101;-70
2021/08/01 08:41:12;;;;;;;0.93;0.70;;;24.60;56.60;;;;;;6243372;28;20078;-71
2021/08/01 08:44:13;;;;;;;1.88;0.88;;;24.50;56.60;;;;;;6242763;28;20037;-71
2021/08/01 08:47:18;;;;;;;1.83;0.70;;;24.50;56.60;;;;;;6243338;28;20075;-71
2021/08/01 08:50:20;;;;;;;1.23;0.73;;;24.50;56.60;;;;;;6243311;28;20048;-71
2021/08/01 08:53:24;;;;;;;1.30;0.80;;;24.50;56.60;;;;;;6242991;28;20535;-71
2021/08/01 08:56:26;;;;;;;2.33;0.97;;;24.60;56.70;;;;;;6242734;28;20060;-71
2021/08/01 08:59:27;;;;;;;1.13;0.80;;;24.60;56.80;;;;;;6243194;28;20352;-71
2021/08/01 09:02:27;;;;;;;1.58;0.70;;;24.50;56.60;;;;;;6242789;28;20033;-71
2021/08/01 09:05:28;;;;;;;1.63;0.77;;;24.50;56.70;;;;;;6242385;28;20037;-71
2021/08/01 09:08:29;;;;;;;1.05;0.50;;;24.50;56.60;;;;;;6242336;28;20038;-71
2021/08/01 09:11:29;;;;;;;0.93;0.80;;;24.60;56.70;;;;;;6246415;28;20041;-71
2021/08/01 09:14:30;;;;;;;1.00;0.70;;;24.60;56.70;;;;;;6230168;28;20036;-71
2021/08/01 09:17:35;;;;;;;0.98;0.82;;;24.60;56.80;;;;;;6241407;28;20029;-71
2021/08/01 09:20:49;;;;;;;1.02;0.75;;;24.50;56.70;;;;;;6242447;28;20410;-71
2021/08/01 09:23:52;;;;;;;0.75;0.68;;;24.50;56.70;;;;;;6240668;28;20065;-71
2021/08/01 09:26:55;;;;;;;1.65;0.77;;;24.60;56.80;;;;;;6242348;28;20025;-71
2021/08/01 09:29:56;;;;;;;0.70;0.70;;;24.50;57.30;;;;;;6241515;28;20480;-71
2021/08/01 09:32:57;;;;;;;1.13;0.75;;;24.60;56.80;;;;;;6242656;28;20077;-71
2021/08/01 09:36:05;;;;;;;1.25;0.90;;;24.50;56.70;;;;;;6242316;28;20033;-71
2021/08/01 09:39:06;;;;;;;0.70;0.60;;;24.50;56.70;;;;;;6242240;28;20048;-71
2021/08/01 09:42:08;;;;;;;0.93;0.60;;;24.60;57.50;;;;;;6241720;28;20040;-71
2021/08/01 09:45:17;;;;;;;1.95;1.02;;;24.50;56.70;;;;;;6243022;28;20083;-71
2021/08/01 09:48:20;;;;;;;0.73;0.73;;;24.50;56.70;;;;;;6241870;28;20032;-71
2021/08/01 09:51:20;;;;;;;0.52;0.47;;;24.50;56.70;;;;;;6241949;28;20017;-71
2021/08/01 09:54:23;;;;;;;1.23;0.70;;;24.50;56.80;;;;;;6241705;28;20436;-71
2021/08/01 09:57:24;;;;;;;2.22;0.90;;;24.60;56.80;;;;;;6241307;28;20045;-71
2021/08/01 10:00:24;;;;;;;0.68;0.57;;;24.50;56.80;;;;;;6241719;28;20076;-71
2021/08/01 10:03:35;;;;;;;0.60;0.55;;;24.60;56.80;;;;;;6241336;28;20033;-71
2021/08/01 10:06:36;;;;;;;0.50;0.50;;;24.50;56.80;;;;;;6241307;28;20033;-71
2021/08/01 10:09:39;;;;;;;0.70;0.60;;;24.60;56.80;;;;;;6241489;28;20040;-71
2021/08/01 10:12:47;;;;;;;0.80;0.60;;;24.50;56.80;;;;;;6240949;28;20028;-72
2021/08/01 10:15:48;;;;;;;0.90;0.60;;;24.50;56.80;;;;;;6218202;28;20036;-71
2021/08/01 10:18:50;;;;;;;0.70;0.52;;;24.60;56.80;;;;;;6240785;28;20022;-71
2021/08/01 10:21:55;;;;;;;0.73;0.47;;;24.60;56.90;;;;;;6241285;28;20026;-71
2021/08/01 10:25:00;;;;;;;0.95;0.60;;;24.50;56.80;;;;;;6241516;28;20040;-71
2021/08/01 10:28:04;;;;;;;0.63;0.55;;;24.50;56.80;;;;;;6240892;28;20481;-71
2021/08/01 10:31:08;;;;;;;0.40;0.35;;;24.50;56.80;;;;;;6241085;28;20505;-71
2021/08/01 10:34:37;;;;;;;0.63;0.50;;;24.60;57.60;;;;;;6240819;28;20487;-71
2021/08/01 10:37:45;;;;;;;0.65;0.50;;;24.50;56.80;;;;;;6238109;28;20036;-71
2021/08/01 10:40:51;;;;;;;2.72;0.70;;;24.50;56.80;;;;;;6240400;28;20068;-71
2021/08/01 10:43:54;;;;;;;0.70;0.50;;;24.50;56.80;;;;;;6240760;28;20057;-71
2021/08/01 10:46:55;;;;;;;0.85;0.50;;;24.50;56.80;;;;;;6241155;28;20435;-71
2021/08/01 10:49:56;;;;;;;0.90;0.70;;;24.50;56.80;;;;;;6241423;28;20076;-71
2021/08/01 10:53:19;;;;;;;0.50;0.50;;;24.50;56.80;;;;;;6241048;28;20087;-71
2021/08/01 10:56:25;;;;;;;0.40;0.40;;;24.50;56.80;;;;;;6240590;28;20046;-71
2021/08/01 10:59:49;;;;;;;0.80;0.60;;;24.50;56.80;;;;;;6241612;28;20083;-71
2021/08/01 11:03:16;;;;;;;0.47;0.47;;;24.50;56.80;;;;;;6239298;28;20459;-71
2021/08/01 11:06:35;;;;;;;0.68;0.60;;;24.50;56.80;;;;;;6241041;28;20069;-71
2021/08/01 11:09:35;;;;;;;0.52;0.52;;;24.50;56.80;;;;;;6240321;28;20021;-71
2021/08/01 11:12:42;;;;;;;0.50;0.50;;;24.50;56.80;;;;;;6240500;28;20032;-71
2021/08/01 11:15:46;;;;;;;0.75;0.50;;;24.50;56.80;;;;;;6233939;28;20045;-71
2021/08/01 11:18:47;;;;;;;0.50;0.50;;;24.50;56.80;;;;;;6241063;28;20024;-71
2021/08/01 11:21:48;;;;;;;0.73;0.60;;;24.50;56.80;;;;;;6246041;28;20022;-71
2021/08/01 11:25:17;;;;;;;0.60;0.57;;;24.60;56.90;;;;;;6250618;28;20171;-71
2021/08/01 11:28:24;;;;;;;0.80;0.50;;;24.50;56.90;;;;;;6249721;28;20028;-71
2021/08/01 11:31:25;;;;;;;0.55;0.52;;;24.50;56.80;;;;;;6249977;28;20080;-71
2021/08/01 11:34:26;;;;;;;0.60;0.60;;;24.50;56.90;;;;;;6248380;28;20022;-70
2021/08/01 11:37:27;;;;;;;0.93;0.47;;;24.50;56.90;;;;;;6257409;28;20041;-70
2021/08/01 11:40:47;;;;;;;0.82;0.57;;;24.60;57.00;;;;;;6250057;28;20040;-71
2021/08/01 11:43:58;;;;;;;0.35;0.35;;;24.50;56.90;;;;;;6241291;28;20060;-71
2021/08/01 11:47:00;;;;;;;0.70;0.40;;;24.50;56.90;;;;;;6240723;28;20026;-71
2021/08/01 11:50:01;;;;;;;0.60;0.50;;;24.50;56.90;;;;;;6240330;28;20578;-71
2021/08/01 11:53:02;;;;;;;0.45;0.43;;;24.60;57.00;;;;;;6243540;28;20037;-71
2021/08/01 11:56:05;;;;;;;0.50;0.40;;;24.50;57.60;;;;;;6244552;28;20049;-70
2021/08/01 11:59:08;;;;;;;0.55;0.40;;;24.50;56.90;;;;;;6244848;28;20034;-71
2021/08/01 12:02:11;;;;;;;0.45;0.40;;;24.50;56.90;;;;;;6244464;28;20021;-71
2021/08/01 12:05:11;;;;;;;0.90;0.55;;;24.50;56.90;;;;;;6244134;28;20036;-71
2021/08/01 12:08:32;;;;;;;0.52;0.50;;;24.50;56.90;;;;;;6244184;28;20037;-71
2021/08/01 12:11:32;;;;;;;0.40;0.40;;;24.50;56.90;;;;;;6244149;28;20098;-71
2021/08/01 12:14:38;;;;;;;0.40;0.40;;;24.50;56.90;;;;;;6242045;28;20029;-71
2021/08/01 12:17:38;;;;;;;0.38;0.38;;;24.50;56.90;;;;;;6244221;28;20025;-71
2021/08/01 12:20:39;;;;;;;0.40;0.40;;;24.50;56.90;;;;;;6244505;28;20044;-71
2021/08/01 12:23:39;;;;;;;0.40;0.40;;;24.50;56.90;;;;;;6243823;28;20095;-71
2021/08/01 12:26:41;;;;;;;0.40;0.40;;;24.50;56.90;;;;;;6244717;28;20030;-71
2021/08/01 12:29:44;;;;;;;0.50;0.40;;;24.50;56.90;;;;;;6243891;28;20109;-71
2021/08/01 12:32:49;;;;;;;0.40;0.40;;;24.60;57.00;;;;;;6244252;28;20206;-71
2021/08/01 12:35:50;;;;;;;0.45;0.45;;;24.50;56.90;;;;;;6243976;28;20029;-71
2021/08/01 12:38:51;;;;;;;0.60;0.40;;;24.50;56.90;;;;;;6243860;28;20534;-71
2021/08/01 12:41:59;;;;;;;0.35;0.30;;;24.60;57.00;;;;;;6243474;28;20042;-71
2021/08/01 12:45:03;;;;;;;0.35;0.35;;;24.50;56.90;;;;;;6244505;28;20580;-71
2021/08/01 12:48:06;;;;;;;0.65;0.40;;;24.50;56.90;;;;;;6243288;28;20021;-71
2021/08/01 12:51:07;;;;;;;0.50;0.45;;;24.50;56.90;;;;;;6243698;28;20075;-71
2021/08/01 12:54:09;;;;;;;0.40;0.40;;;24.50;57.00;;;;;;6242828;28;20520;-71
2021/08/01 12:57:10;;;;;;;0.40;0.40;;;24.50;57.00;;;;;;6243333;28;20050;-71
2021/08/01 13:00:14;;;;;;;0.40;0.40;;;24.50;56.90;;;;;;6243280;28;20111;-71
2021/08/01 13:03:15;;;;;;;0.30;0.30;;;24.50;57.00;;;;;;6241947;28;20385;-71
2021/08/01 13:06:26;;;;;;;0.77;0.40;;;24.50;57.70;;;;;;6242957;28;20061;-70
2021/08/01 13:09:27;;;;;;;0.82;0.50;;;24.50;57.00;;;;;;6243510;28;20463;-71
2021/08/01 13:12:27;;;;;;;0.52;0.40;;;24.50;57.00;;;;;;6242611;28;20036;-71
2021/08/01 13:15:29;;;;;;;0.40;0.40;;;24.50;57.00;;;;;;6230653;28;20053;-71
2021/08/01 13:18:31;;;;;;;0.32;0.32;;;24.50;57.00;;;;;;6242924;28;20029;-71
2021/08/01 13:21:32;;;;;;;0.68;0.43;;;24.50;57.00;;;;;;6242554;28;20228;-71
2021/08/01 13:24:38;;;;;;;0.40;0.40;;;24.50;57.00;;;;;;6242487;28;20033;-71
2021/08/01 13:27:50;;;;;;;0.70;0.50;;;24.50;57.00;;;;;;6242681;28;20017;-71
2021/08/01 13:31:04;;;;;;;0.43;0.40;;;24.50;57.00;;;;;;6242336;28;20037;-71
2021/08/01 13:34:06;;;;;;;0.52;0.47;;;24.50;57.00;;;;;;6242201;28;20472;-72
2021/08/01 13:37:26;;;;;;;0.75;0.40;;;24.60;57.10;;;;;;6242260;28;20059;-71
2021/08/01 13:40:37;;;;;;;0.68;0.55;;;24.50;57.00;;;;;;6242295;28;20094;-71
2021/08/01 13:43:37;;;;;;;0.50;0.40;;;24.50;57.00;;;;;;6242595;28;20025;-71
2021/08/01 13:46:38;;;;;;;0.40;0.40;;;24.50;57.00;;;;;;6241612;28;20095;-71
2021/08/01 13:49:51;;;;;;;0.40;0.40;;;24.50;57.00;;;;;;6242180;28;20430;-71
2021/08/01 13:52:53;;;;;;;0.70;0.50;;;24.50;57.00;;;;;;6217590;28;20034;-71
2021/08/01 13:55:53;;;;;;;0.20;0.20;;;24.50;57.00;;;;;;6225936;28;20416;-71
2021/08/01 13:58:55;;;;;;;0.40;0.40;;;24.50;57.00;;;;;;6241775;28;20033;-71
2021/08/01 14:01:56;;;;;;;0.35;0.30;;;24.60;57.10;;;;;;6241537;28;20036;-71
2021/08/01 14:04:57;;;;;;;0.45;0.40;;;24.50;57.00;;;;;;6242038;28;20033;-71
2021/08/01 14:07:58;;;;;;;0.40;0.40;;;24.50;57.00;;;;;;6241051;28;20029;-71
2021/08/01 14:10:58;;;;;;;0.43;0.40;;;24.50;57.00;;;;;;6242044;28;20036;-70
2021/08/01 14:13:59;;;;;;;0.50;0.40;;;24.50;57.00;;;;;;6231632;28;20040;-71
2021/08/01 14:16:59;;;;;;;0.40;0.38;;;24.50;57.00;;;;;;6230325;28;20095;-71
2021/08/01 14:20:00;;;;;;;0.40;0.40;;;24.50;57.00;;;;;;6241591;28;20031;-71
2021/08/01 14:23:01;;;;;;;0.30;0.30;;;24.50;57.10;;;;;;6241298;28;20427;-71
2021/08/01 14:26:03;;;;;;;0.45;0.40;;;24.50;57.00;;;;;;6241557;28;20037;-71
2021/08/01 14:29:04;;;;;;;0.30;0.30;;;24.60;57.20;;;;;;6241889;28;20038;-71
2021/08/01 14:32:08;;;;;;;0.35;0.35;;;24.50;57.10;;;;;;6240814;28;20040;-71
2021/08/01 14:35:09;;;;;;;0.30;0.30;;;24.50;57.00;;;;;;6241664;28;20029;-71
2021/08/01 14:38:10;;;;;;;0.57;0.40;;;24.50;57.00;;;;;;6240543;28;20175;-71
2021/08/01 14:41:14;;;;;;;0.50;0.40;;;24.50;57.00;;;;;;6241124;28;20033;-71
2021/08/01 14:44:16;;;;;;;0.47;0.40;;;24.50;57.00;;;;;;6240935;28;20037;-71
2021/08/01 14:47:35;;;;;;;0.40;0.40;;;24.50;57.00;;;;;;6240741;28;20014;-71
2021/08/01 14:50:44;;;;;;;0.43;0.43;;;24.60;57.10;;;;;;6238102;28;20030;-71
2021/08/01 14:53:46;;;;;;;0.82;0.50;;;24.60;57.20;;;;;;6239788;28;20060;-71
2021/08/01 14:56:58;;;;;;;0.43;0.43;;;24.50;57.10;;;;;;6240879;28;20488;-71
2021/08/01 15:00:06;;;;;;;0.50;0.40;;;24.50;57.10;;;;;;6240971;28;20108;-71
2021/08/01 15:03:20;;;;;;;0.50;0.50;;;24.60;57.20;;;;;;6240410;28;20025;-71
2021/08/01 15:06:41;;;;;;;0.50;0.40;;;24.50;57.10;;;;;;6241398;28;20083;-71
2021/08/01 15:10:10;;;;;;;0.70;0.60;;;24.50;57.80;;;;;;6217133;28;20280;-71
2021/08/01 15:13:20;;;;;;;0.50;0.50;;;24.50;57.10;;;;;;6224613;28;20108;-71
2021/08/01 15:16:24;;;;;;;0.77;0.50;;;24.50;57.10;;;;;;6216622;28;20041;-71
2021/08/01 15:19:31;;;;;;;0.50;0.40;;;24.50;57.10;;;;;;6237891;28;20400;-71
2021/08/01 15:23:01;;;;;;;0.57;0.43;;;24.50;57.10;;;;;;6240193;28;20037;-71
2021/08/01 15:26:04;;;;;;;0.65;0.40;;;24.50;57.10;;;;;;6240990;28;20496;-71
2021/08/01 15:29:06;;;;;;;0.90;0.50;;;24.50;57.10;;;;;;6245780;28;20033;-71
2021/08/01 15:32:08;;;;;;;1.13;0.50;;;24.50;57.10;;;;;;6245351;28;20149;-71
2021/08/01 15:35:09;;;;;;;0.95;0.40;;;24.50;57.10;;;;;;6245463;28;20108;-71
2021/08/01 15:38:13;;;;;;;0.40;0.40;;;24.50;57.10;;;;;;6244890;28;20367;-71
2021/08/01 15:41:15;;;;;;;0.50;0.43;;;24.50;57.20;;;;;;6244926;28;20469;-72
2021/08/01 15:44:18;;;;;;;0.30;0.30;;;24.50;57.10;;;;;;6244518;28;20512;-71
2021/08/01 15:47:20;;;;;;;0.50;0.50;;;24.60;57.90;;;;;;6245147;28;20439;-71
2021/08/01 15:50:21;;;;;;;0.40;0.40;;;24.50;57.20;;;;;;6245049;28;20030;-71
2021/08/01 15:53:45;;;;;;;0.40;0.40;;;24.50;57.10;;;;;;6245216;28;20025;-71